IBE4658 LIPX-LEMD
Flight info
| Callsign | IBE4658 |
|---|---|
| Flight time | 2h 12m |
| Altitude | 35000 |
| Route | LEGLO DCT GEKBA DCT VAMTU DCT KOLON DCT GANGU DCT PADKO DCT DIVKO DCT NILDU DCT NENDA N975 RAMON/N0448F310 N975 ADUXO |
| Aircraft | A320/M-SDE3FGHIRWY/LB1 |
Departure
| Time | 2026-05-06 01:07 |
|---|---|
| Airport | Verona Villafranca Valerio Catullo Airport (LIPX) |
Arrival
| Time | 2026-05-06 03:19 |
|---|---|
| Airport | Adolfo Suárez Madrid–Barajas Airport (LEMD) |
| Time | Latitude | Longitude | Altitude | Speed | Heading |
|---|---|---|---|---|---|
| 2026-05-06 00:43 | 45.40242 | 10.90517 | 242 ft | 0 kts | 135° |
| 2026-05-06 00:59 | 45.40250 | 10.90506 | 242 ft | 2 kts | 135° |
| 2026-05-06 00:59 | 45.40262 | 10.90489 | 242 ft | 2 kts | 135° |
| 2026-05-06 00:59 | 45.40274 | 10.90472 | 242 ft | 2 kts | 98° |
| 2026-05-06 01:00 | 45.40271 | 10.90450 | 242 ft | 1 kts | 35° |
| 2026-05-06 01:00 | 45.40271 | 10.90449 | 242 ft | 0 kts | 35° |
| 2026-05-06 01:04 | 45.40275 | 10.90449 | 226 ft | 2 kts | 4° |
| 2026-05-06 01:05 | 45.40297 | 10.90365 | 242 ft | 19 kts | 287° |
| 2026-05-06 01:05 | 45.40332 | 10.90205 | 243 ft | 12 kts | 292° |
| 2026-05-06 01:05 | 45.40356 | 10.90125 | 244 ft | 11 kts | 292° |
| 2026-05-06 01:05 | 45.40368 | 10.90042 | 245 ft | 6 kts | 255° |
| 2026-05-06 01:06 | 45.40354 | 10.90008 | 246 ft | 17 kts | 236° |
| 2026-05-06 01:06 | 45.40084 | 10.89602 | 245 ft | 92 kts | 226° |
| 2026-05-06 01:06 | 45.39492 | 10.88740 | 239 ft | 148 kts | 225° |
| 2026-05-06 01:06 | 45.38687 | 10.87544 | 412 ft | 177 kts | 227° |
| 2026-05-06 01:07 | 45.37841 | 10.86180 | 902 ft | 191 kts | 229° |
| 2026-05-06 01:07 | 45.36995 | 10.84661 | 1458 ft | 202 kts | 232° |
| 2026-05-06 01:07 | 45.36285 | 10.82862 | 1819 ft | 224 kts | 250° |
| 2026-05-06 01:07 | 45.35836 | 10.80580 | 2177 ft | 249 kts | 256° |
| 2026-05-06 01:08 | 45.35428 | 10.78096 | 2719 ft | 264 kts | 257° |
| 2026-05-06 01:08 | 45.35349 | 10.75540 | 3603 ft | 266 kts | 283° |
| 2026-05-06 01:08 | 45.36170 | 10.73199 | 4552 ft | 267 kts | 305° |
| 2026-05-06 01:08 | 45.37272 | 10.71073 | 5460 ft | 267 kts | 302° |
| 2026-05-06 01:09 | 45.38289 | 10.68861 | 6357 ft | 268 kts | 298° |
| 2026-05-06 01:09 | 45.39224 | 10.66567 | 7173 ft | 269 kts | 295° |
| 2026-05-06 01:09 | 45.40107 | 10.64207 | 7993 ft | 271 kts | 294° |
| 2026-05-06 01:09 | 45.40963 | 10.61802 | 8807 ft | 273 kts | 293° |
| 2026-05-06 01:10 | 45.41809 | 10.59367 | 9582 ft | 276 kts | 292° |
| 2026-05-06 01:10 | 45.42662 | 10.56892 | 10324 ft | 279 kts | 292° |
| 2026-05-06 01:10 | 45.43520 | 10.54394 | 11047 ft | 282 kts | 292° |
| 2026-05-06 01:10 | 45.44383 | 10.51878 | 11766 ft | 285 kts | 292° |
| 2026-05-06 01:11 | 45.45258 | 10.49326 | 12467 ft | 288 kts | 292° |
| 2026-05-06 01:11 | 45.46137 | 10.46755 | 13213 ft | 290 kts | 291° |
| 2026-05-06 01:11 | 45.46748 | 10.43962 | 13442 ft | 304 kts | 272° |
| 2026-05-06 01:11 | 45.46500 | 10.40913 | 13570 ft | 321 kts | 249° |
| 2026-05-06 01:12 | 45.45392 | 10.38139 | 13903 ft | 332 kts | 236° |
| 2026-05-06 01:12 | 45.44081 | 10.35403 | 14451 ft | 336 kts | 236° |
| 2026-05-06 01:12 | 45.42756 | 10.32644 | 15059 ft | 339 kts | 236° |
| 2026-05-06 01:12 | 45.41423 | 10.29867 | 15663 ft | 341 kts | 236° |
| 2026-05-06 01:13 | 45.40079 | 10.27062 | 16264 ft | 344 kts | 235° |
| 2026-05-06 01:13 | 45.38731 | 10.24242 | 16863 ft | 346 kts | 235° |
| 2026-05-06 01:13 | 45.37376 | 10.21404 | 17451 ft | 348 kts | 235° |
| 2026-05-06 01:13 | 45.36010 | 10.18544 | 18034 ft | 351 kts | 235° |
| 2026-05-06 01:14 | 45.33249 | 10.12773 | 19052 ft | 355 kts | 235° |
| 2026-05-06 01:14 | 45.31855 | 10.09868 | 19522 ft | 357 kts | 235° |
| 2026-05-06 01:14 | 45.30452 | 10.06948 | 20036 ft | 358 kts | 235° |
| 2026-05-06 01:15 | 45.29043 | 10.04016 | 20538 ft | 360 kts | 235° |
| 2026-05-06 01:15 | 45.27623 | 10.01073 | 21030 ft | 362 kts | 235° |
| 2026-05-06 01:15 | 45.26195 | 9.98118 | 21501 ft | 364 kts | 235° |
| 2026-05-06 01:15 | 45.24761 | 9.95150 | 21982 ft | 365 kts | 235° |
| 2026-05-06 01:16 | 45.23321 | 9.92169 | 22448 ft | 367 kts | 235° |
| 2026-05-06 01:16 | 45.21870 | 9.89170 | 22909 ft | 369 kts | 235° |
| 2026-05-06 01:16 | 45.20411 | 9.86160 | 23355 ft | 371 kts | 235° |
| 2026-05-06 01:16 | 45.18946 | 9.83139 | 23754 ft | 373 kts | 235° |
| 2026-05-06 01:17 | 45.17469 | 9.80097 | 24120 ft | 375 kts | 235° |
| 2026-05-06 01:17 | 45.15989 | 9.77052 | 24480 ft | 376 kts | 235° |
| 2026-05-06 01:17 | 45.14507 | 9.73999 | 24883 ft | 376 kts | 236° |
| 2026-05-06 01:17 | 45.13021 | 9.70939 | 25251 ft | 377 kts | 236° |
| 2026-05-06 01:18 | 45.11530 | 9.67876 | 25613 ft | 378 kts | 235° |
| 2026-05-06 01:18 | 45.10036 | 9.64811 | 25964 ft | 379 kts | 236° |
| 2026-05-06 01:18 | 45.08531 | 9.61730 | 26352 ft | 381 kts | 235° |
| 2026-05-06 01:18 | 45.07023 | 9.58646 | 26711 ft | 382 kts | 235° |
| 2026-05-06 01:19 | 45.05508 | 9.55548 | 27047 ft | 383 kts | 235° |
| 2026-05-06 01:19 | 45.04012 | 9.52489 | 27397 ft | 384 kts | 235° |
| 2026-05-06 01:19 | 45.02489 | 9.49378 | 27732 ft | 386 kts | 235° |
| 2026-05-06 01:19 | 45.00959 | 9.46256 | 28057 ft | 387 kts | 235° |
| 2026-05-06 01:20 | 44.99420 | 9.43120 | 28345 ft | 388 kts | 235° |
| 2026-05-06 01:20 | 44.97881 | 9.39990 | 28665 ft | 389 kts | 235° |
| 2026-05-06 01:20 | 44.96334 | 9.36854 | 28993 ft | 390 kts | 235° |
| 2026-05-06 01:20 | 44.94781 | 9.33710 | 29280 ft | 391 kts | 235° |
| 2026-05-06 01:21 | 44.93751 | 9.31621 | 29456 ft | 392 kts | 235° |
| 2026-05-06 01:21 | 44.92192 | 9.28462 | 29761 ft | 393 kts | 236° |
| 2026-05-06 01:21 | 44.90622 | 9.25288 | 30035 ft | 394 kts | 235° |
| 2026-05-06 01:21 | 44.89051 | 9.22118 | 30312 ft | 394 kts | 235° |
| 2026-05-06 01:22 | 44.87487 | 9.18962 | 30675 ft | 392 kts | 235° |
| 2026-05-06 01:22 | 44.85928 | 9.15820 | 30940 ft | 390 kts | 235° |
| 2026-05-06 01:22 | 44.84392 | 9.12728 | 30961 ft | 379 kts | 235° |
| 2026-05-06 01:22 | 44.82890 | 9.09710 | 30956 ft | 374 kts | 235° |
| 2026-05-06 01:23 | 44.79917 | 9.03746 | 30966 ft | 371 kts | 235° |
| 2026-05-06 01:23 | 44.76958 | 8.97816 | 30957 ft | 369 kts | 235° |
| 2026-05-06 01:24 | 44.74004 | 8.91907 | 30965 ft | 369 kts | 235° |
| 2026-05-06 01:24 | 44.71042 | 8.85991 | 30957 ft | 370 kts | 234° |
| 2026-05-06 01:25 | 44.68081 | 8.80086 | 30960 ft | 369 kts | 235° |
| 2026-05-06 01:25 | 44.65120 | 8.74206 | 30936 ft | 369 kts | 235° |
| 2026-05-06 01:26 | 44.62171 | 8.68378 | 30984 ft | 368 kts | 234° |
| 2026-05-06 01:26 | 44.59197 | 8.62480 | 30966 ft | 367 kts | 235° |
| 2026-05-06 01:27 | 44.56263 | 8.56673 | 30961 ft | 367 kts | 235° |
| 2026-05-06 01:27 | 44.53306 | 8.50836 | 30961 ft | 367 kts | 235° |
| 2026-05-06 01:28 | 44.50345 | 8.45025 | 30955 ft | 366 kts | 234° |
| 2026-05-06 01:28 | 44.47379 | 8.39211 | 30952 ft | 366 kts | 234° |
| 2026-05-06 01:29 | 44.44421 | 8.33413 | 30967 ft | 366 kts | 234° |
| 2026-05-06 01:29 | 44.41463 | 8.27620 | 30962 ft | 365 kts | 234° |
| 2026-05-06 01:30 | 44.38503 | 8.21844 | 30960 ft | 365 kts | 234° |
| 2026-05-06 01:30 | 44.35565 | 8.16118 | 30958 ft | 364 kts | 234° |
| 2026-05-06 01:31 | 44.32609 | 8.10364 | 30938 ft | 364 kts | 234° |
| 2026-05-06 01:31 | 44.29648 | 8.04617 | 30944 ft | 364 kts | 234° |
| 2026-05-06 01:32 | 44.26689 | 7.98885 | 30946 ft | 364 kts | 234° |
| 2026-05-06 01:32 | 44.23723 | 7.93164 | 30974 ft | 364 kts | 233° |
| 2026-05-06 01:33 | 44.20760 | 7.87442 | 30966 ft | 364 kts | 233° |
| 2026-05-06 01:33 | 44.17795 | 7.81727 | 30958 ft | 363 kts | 234° |
| 2026-05-06 01:34 | 44.14828 | 7.76026 | 30931 ft | 364 kts | 233° |
| 2026-05-06 01:34 | 44.11863 | 7.70347 | 30931 ft | 362 kts | 233° |
| 2026-05-06 01:35 | 44.08892 | 7.64669 | 30943 ft | 363 kts | 233° |
| 2026-05-06 01:35 | 44.05920 | 7.58995 | 30964 ft | 363 kts | 233° |
| 2026-05-06 01:36 | 44.02951 | 7.53323 | 30993 ft | 362 kts | 233° |
| 2026-05-06 01:36 | 44.00010 | 7.47725 | 30975 ft | 361 kts | 233° |
| 2026-05-06 01:37 | 43.97052 | 7.42117 | 30953 ft | 360 kts | 233° |
| 2026-05-06 01:37 | 43.94094 | 7.36517 | 30951 ft | 359 kts | 233° |
| 2026-05-06 01:38 | 43.91137 | 7.30922 | 30949 ft | 360 kts | 233° |
| 2026-05-06 01:38 | 43.88172 | 7.25318 | 30944 ft | 360 kts | 233° |
| 2026-05-06 01:39 | 43.85214 | 7.19738 | 30942 ft | 359 kts | 233° |
| 2026-05-06 01:39 | 43.82250 | 7.14166 | 30942 ft | 359 kts | 233° |
| 2026-05-06 01:40 | 43.79287 | 7.08606 | 30926 ft | 359 kts | 233° |
| 2026-05-06 01:40 | 43.76319 | 7.03055 | 30926 ft | 359 kts | 233° |
| 2026-05-06 01:41 | 43.73344 | 6.97492 | 30922 ft | 359 kts | 233° |
| 2026-05-06 01:41 | 43.71023 | 6.91354 | 30929 ft | 363 kts | 245° |
| 2026-05-06 01:42 | 43.69131 | 6.84892 | 30930 ft | 363 kts | 245° |
| 2026-05-06 01:42 | 43.67227 | 6.78449 | 30960 ft | 362 kts | 244° |
| 2026-05-06 01:43 | 43.65333 | 6.72052 | 30956 ft | 362 kts | 244° |
| 2026-05-06 01:43 | 43.63419 | 6.65578 | 30925 ft | 362 kts | 244° |
| 2026-05-06 01:44 | 43.61528 | 6.59194 | 30927 ft | 361 kts | 244° |
| 2026-05-06 01:44 | 43.59614 | 6.52775 | 30924 ft | 362 kts | 244° |
| 2026-05-06 01:45 | 43.57699 | 6.46368 | 30949 ft | 362 kts | 244° |
| 2026-05-06 01:45 | 43.55783 | 6.39954 | 30933 ft | 361 kts | 244° |
| 2026-05-06 01:46 | 43.53867 | 6.33551 | 30919 ft | 361 kts | 244° |
| 2026-05-06 01:46 | 43.51940 | 6.27150 | 30915 ft | 361 kts | 244° |
| 2026-05-06 01:47 | 43.50007 | 6.20758 | 30918 ft | 362 kts | 244° |
| 2026-05-06 01:47 | 43.48073 | 6.14358 | 30919 ft | 362 kts | 244° |
| 2026-05-06 01:48 | 43.46138 | 6.07947 | 30936 ft | 362 kts | 244° |
| 2026-05-06 01:48 | 43.44196 | 6.01552 | 30936 ft | 362 kts | 244° |
| 2026-05-06 01:49 | 43.42251 | 5.95177 | 30935 ft | 361 kts | 243° |
| 2026-05-06 01:49 | 43.40300 | 5.88806 | 30930 ft | 361 kts | 243° |
| 2026-05-06 01:50 | 43.38354 | 5.82443 | 30927 ft | 361 kts | 243° |
| 2026-05-06 01:50 | 43.36408 | 5.76089 | 30910 ft | 360 kts | 243° |
| 2026-05-06 01:51 | 43.34395 | 5.69524 | 30943 ft | 361 kts | 243° |
| 2026-05-06 01:51 | 43.32435 | 5.63162 | 30923 ft | 362 kts | 243° |
| 2026-05-06 01:52 | 43.30463 | 5.56796 | 30913 ft | 362 kts | 243° |
| 2026-05-06 01:52 | 43.28489 | 5.50414 | 30885 ft | 363 kts | 243° |
| 2026-05-06 01:53 | 43.26856 | 5.45128 | 30896 ft | 362 kts | 243° |
| 2026-05-06 01:53 | 43.24552 | 5.37749 | 30906 ft | 362 kts | 243° |
| 2026-05-06 01:54 | 43.22570 | 5.31400 | 30954 ft | 362 kts | 243° |
| 2026-05-06 01:54 | 43.20590 | 5.25045 | 30947 ft | 362 kts | 243° |
| 2026-05-06 01:55 | 43.18938 | 5.19771 | 30940 ft | 362 kts | 243° |
| 2026-05-06 01:55 | 43.16940 | 5.13438 | 30934 ft | 362 kts | 243° |
| 2026-05-06 01:56 | 43.14939 | 5.07094 | 30931 ft | 362 kts | 243° |
| 2026-05-06 01:56 | 43.12941 | 5.00763 | 30927 ft | 362 kts | 243° |
| 2026-05-06 01:57 | 43.10943 | 4.94436 | 30944 ft | 362 kts | 243° |
| 2026-05-06 01:57 | 43.08938 | 4.88126 | 30937 ft | 361 kts | 243° |
| 2026-05-06 01:58 | 43.06936 | 4.81827 | 30937 ft | 361 kts | 243° |
| 2026-05-06 01:58 | 43.04273 | 4.76121 | 30923 ft | 356 kts | 226° |
| 2026-05-06 01:59 | 43.00587 | 4.71600 | 30910 ft | 356 kts | 222° |
| 2026-05-06 01:59 | 42.96874 | 4.67122 | 30904 ft | 356 kts | 222° |
| 2026-05-06 02:00 | 42.93164 | 4.62639 | 30904 ft | 356 kts | 222° |
| 2026-05-06 02:00 | 42.89452 | 4.58156 | 30883 ft | 356 kts | 223° |
| 2026-05-06 02:01 | 42.85736 | 4.53687 | 30918 ft | 357 kts | 222° |
| 2026-05-06 02:01 | 42.82007 | 4.49219 | 30909 ft | 357 kts | 222° |
| 2026-05-06 02:02 | 42.78280 | 4.44751 | 30908 ft | 357 kts | 222° |
| 2026-05-06 02:02 | 42.74553 | 4.40289 | 30904 ft | 357 kts | 222° |
| 2026-05-06 02:03 | 42.70820 | 4.35831 | 30898 ft | 357 kts | 222° |
| 2026-05-06 02:03 | 42.67112 | 4.31395 | 30896 ft | 357 kts | 222° |
| 2026-05-06 02:04 | 42.63376 | 4.26938 | 30896 ft | 357 kts | 222° |
| 2026-05-06 02:04 | 42.59640 | 4.22496 | 30892 ft | 357 kts | 222° |
| 2026-05-06 02:05 | 42.55901 | 4.18059 | 30913 ft | 358 kts | 222° |
| 2026-05-06 02:05 | 42.52138 | 4.13606 | 30870 ft | 360 kts | 222° |
| 2026-05-06 02:06 | 42.48356 | 4.09140 | 30882 ft | 361 kts | 222° |
| 2026-05-06 02:06 | 42.44578 | 4.04682 | 30884 ft | 360 kts | 222° |
| 2026-05-06 02:07 | 42.40807 | 4.00229 | 30882 ft | 359 kts | 222° |
| 2026-05-06 02:07 | 42.37037 | 3.95786 | 30883 ft | 359 kts | 222° |
| 2026-05-06 02:08 | 42.33269 | 3.91356 | 30845 ft | 358 kts | 223° |
| 2026-05-06 02:08 | 42.29505 | 3.86940 | 30884 ft | 358 kts | 223° |
| 2026-05-06 02:09 | 42.25845 | 3.82399 | 30887 ft | 356 kts | 230° |
| 2026-05-06 02:09 | 42.22938 | 3.76985 | 30912 ft | 357 kts | 234° |
| 2026-05-06 02:10 | 42.20079 | 3.71548 | 30886 ft | 358 kts | 234° |
| 2026-05-06 02:10 | 42.17188 | 3.66076 | 30881 ft | 359 kts | 234° |
| 2026-05-06 02:11 | 42.14296 | 3.60593 | 30884 ft | 359 kts | 234° |
| 2026-05-06 02:11 | 42.11401 | 3.55124 | 30870 ft | 358 kts | 234° |
| 2026-05-06 02:12 | 42.08505 | 3.49666 | 30880 ft | 357 kts | 234° |
| 2026-05-06 02:12 | 42.05615 | 3.44219 | 30886 ft | 357 kts | 234° |
| 2026-05-06 02:13 | 42.02721 | 3.38792 | 30891 ft | 357 kts | 234° |
| 2026-05-06 02:13 | 41.99829 | 3.33374 | 30891 ft | 356 kts | 234° |
| 2026-05-06 02:14 | 41.96932 | 3.27964 | 30886 ft | 356 kts | 234° |
| 2026-05-06 02:14 | 41.94042 | 3.22555 | 30832 ft | 356 kts | 234° |
| 2026-05-06 02:15 | 41.91154 | 3.17161 | 30873 ft | 356 kts | 234° |
| 2026-05-06 02:15 | 41.88277 | 3.11807 | 30879 ft | 355 kts | 234° |
| 2026-05-06 02:16 | 41.85379 | 3.06433 | 30881 ft | 355 kts | 234° |
| 2026-05-06 02:16 | 41.82488 | 3.01067 | 30936 ft | 355 kts | 234° |
| 2026-05-06 02:17 | 41.79597 | 2.95708 | 30922 ft | 354 kts | 234° |
| 2026-05-06 02:17 | 41.76711 | 2.90365 | 30907 ft | 354 kts | 234° |
| 2026-05-06 02:18 | 41.73821 | 2.85023 | 30879 ft | 354 kts | 234° |
| 2026-05-06 02:18 | 41.70929 | 2.79704 | 30884 ft | 353 kts | 234° |
| 2026-05-06 02:19 | 41.68033 | 2.74401 | 30893 ft | 353 kts | 233° |
| 2026-05-06 02:19 | 41.65051 | 2.69200 | 30894 ft | 352 kts | 232° |
| 2026-05-06 02:20 | 41.60499 | 2.61469 | 30906 ft | 353 kts | 232° |
| 2026-05-06 02:21 | 41.57492 | 2.56332 | 30900 ft | 354 kts | 233° |
| 2026-05-06 02:21 | 41.54469 | 2.51144 | 30897 ft | 354 kts | 233° |
| 2026-05-06 02:22 | 41.51427 | 2.45941 | 30880 ft | 353 kts | 233° |
| 2026-05-06 02:22 | 41.48430 | 2.40824 | 30893 ft | 352 kts | 233° |
| 2026-05-06 02:23 | 41.45413 | 2.35678 | 30896 ft | 352 kts | 233° |
| 2026-05-06 02:23 | 41.42394 | 2.30546 | 30904 ft | 352 kts | 233° |
| 2026-05-06 02:24 | 41.39369 | 2.25420 | 30946 ft | 352 kts | 233° |
| 2026-05-06 02:24 | 41.36338 | 2.20296 | 30933 ft | 352 kts | 233° |
| 2026-05-06 02:25 | 41.33309 | 2.15168 | 30925 ft | 352 kts | 233° |
| 2026-05-06 02:25 | 41.30807 | 2.09603 | 30892 ft | 353 kts | 248° |
| 2026-05-06 02:26 | 41.29846 | 2.03151 | 30899 ft | 357 kts | 257° |
| 2026-05-06 02:26 | 41.29106 | 1.96620 | 30903 ft | 357 kts | 257° |
| 2026-05-06 02:27 | 41.28344 | 1.90081 | 30941 ft | 357 kts | 257° |
| 2026-05-06 02:27 | 41.27584 | 1.83557 | 30930 ft | 357 kts | 257° |
| 2026-05-06 02:28 | 41.26819 | 1.77031 | 30926 ft | 357 kts | 257° |
| 2026-05-06 02:28 | 41.26047 | 1.70523 | 30920 ft | 356 kts | 257° |
| 2026-05-06 02:29 | 41.25283 | 1.64018 | 30920 ft | 356 kts | 257° |
| 2026-05-06 02:29 | 41.24521 | 1.57508 | 30917 ft | 356 kts | 257° |
| 2026-05-06 02:30 | 41.23763 | 1.51047 | 30943 ft | 356 kts | 258° |
| 2026-05-06 02:30 | 41.22986 | 1.44536 | 30926 ft | 357 kts | 258° |
| 2026-05-06 02:31 | 41.22203 | 1.38024 | 30921 ft | 357 kts | 257° |
| 2026-05-06 02:31 | 41.21415 | 1.31501 | 30920 ft | 357 kts | 258° |
| 2026-05-06 02:32 | 41.20625 | 1.24990 | 30915 ft | 357 kts | 257° |
| 2026-05-06 02:32 | 41.19834 | 1.18468 | 30913 ft | 357 kts | 257° |
| 2026-05-06 02:33 | 41.19036 | 1.11954 | 30941 ft | 358 kts | 258° |
| 2026-05-06 02:33 | 41.18769 | 1.09790 | 30928 ft | 358 kts | 258° |
| 2026-05-06 02:34 | 41.17432 | 0.98871 | 30912 ft | 360 kts | 258° |
| 2026-05-06 02:34 | 41.16614 | 0.92317 | 30920 ft | 360 kts | 258° |
| 2026-05-06 02:35 | 41.15795 | 0.85764 | 30922 ft | 360 kts | 258° |
| 2026-05-06 02:35 | 41.14977 | 0.79215 | 30916 ft | 360 kts | 258° |
| 2026-05-06 02:36 | 41.14151 | 0.72658 | 30930 ft | 361 kts | 258° |
| 2026-05-06 02:36 | 41.13325 | 0.66121 | 30914 ft | 362 kts | 258° |
| 2026-05-06 02:37 | 41.12492 | 0.59545 | 30904 ft | 360 kts | 258° |
| 2026-05-06 02:37 | 41.11658 | 0.53008 | 30923 ft | 359 kts | 258° |
| 2026-05-06 02:38 | 41.10824 | 0.46494 | 30927 ft | 358 kts | 258° |
| 2026-05-06 02:38 | 41.09992 | 0.39994 | 30930 ft | 358 kts | 258° |
| 2026-05-06 02:39 | 41.09154 | 0.33496 | 30925 ft | 358 kts | 259° |
| 2026-05-06 02:39 | 41.08304 | 0.26979 | 30926 ft | 359 kts | 258° |
| 2026-05-06 02:40 | 41.07594 | 0.21554 | 30925 ft | 360 kts | 258° |
| 2026-05-06 02:40 | 41.06734 | 0.15022 | 30927 ft | 360 kts | 258° |
| 2026-05-06 02:41 | 41.05874 | 0.08491 | 30928 ft | 360 kts | 258° |
| 2026-05-06 02:41 | 41.05010 | 0.01959 | 30930 ft | 360 kts | 258° |
| 2026-05-06 02:42 | 41.04145 | -0.04571 | 30948 ft | 360 kts | 259° |
| 2026-05-06 02:42 | 41.03269 | -0.11110 | 30937 ft | 361 kts | 259° |
| 2026-05-06 02:43 | 41.02019 | -0.17529 | 30934 ft | 361 kts | 252° |
| 2026-05-06 02:43 | 41.00363 | -0.23935 | 30936 ft | 361 kts | 252° |
| 2026-05-06 02:44 | 40.98730 | -0.30214 | 30939 ft | 361 kts | 252° |
| 2026-05-06 02:44 | 40.97092 | -0.36485 | 30941 ft | 361 kts | 252° |
| 2026-05-06 02:45 | 40.95451 | -0.42755 | 30941 ft | 361 kts | 252° |
| 2026-05-06 02:45 | 40.93824 | -0.48984 | 30940 ft | 360 kts | 252° |
| 2026-05-06 02:46 | 40.92185 | -0.55248 | 30942 ft | 361 kts | 252° |
| 2026-05-06 02:46 | 40.90539 | -0.61505 | 30894 ft | 359 kts | 252° |
| 2026-05-06 02:47 | 40.88899 | -0.67715 | 30942 ft | 357 kts | 252° |
| 2026-05-06 02:47 | 40.87260 | -0.73901 | 30949 ft | 357 kts | 252° |
| 2026-05-06 02:48 | 40.85627 | -0.80079 | 30955 ft | 356 kts | 252° |
| 2026-05-06 02:48 | 40.83987 | -0.86264 | 30949 ft | 357 kts | 252° |
| 2026-05-06 02:49 | 40.82336 | -0.92444 | 30949 ft | 357 kts | 252° |
| 2026-05-06 02:49 | 40.80682 | -0.98625 | 30948 ft | 357 kts | 252° |
| 2026-05-06 02:50 | 40.79029 | -1.04793 | 30947 ft | 356 kts | 252° |
| 2026-05-06 02:50 | 40.77390 | -1.10924 | 30946 ft | 356 kts | 252° |
| 2026-05-06 02:51 | 40.75730 | -1.17091 | 30957 ft | 357 kts | 252° |
| 2026-05-06 02:51 | 40.74068 | -1.23264 | 30955 ft | 357 kts | 252° |
| 2026-05-06 02:52 | 40.72405 | -1.29440 | 30953 ft | 358 kts | 252° |
| 2026-05-06 02:52 | 40.70734 | -1.35619 | 30733 ft | 357 kts | 252° |
| 2026-05-06 02:52 | 40.69899 | -1.38692 | 30490 ft | 355 kts | 252° |
| 2026-05-06 02:53 | 40.69069 | -1.41745 | 30248 ft | 353 kts | 252° |
| 2026-05-06 02:53 | 40.68246 | -1.44757 | 29903 ft | 346 kts | 253° |
| 2026-05-06 02:53 | 40.67435 | -1.47710 | 29434 ft | 339 kts | 253° |
| 2026-05-06 02:53 | 40.66640 | -1.50605 | 28984 ft | 333 kts | 253° |
| 2026-05-06 02:54 | 40.65860 | -1.53449 | 28559 ft | 327 kts | 253° |
| 2026-05-06 02:54 | 40.65097 | -1.56238 | 28134 ft | 321 kts | 253° |
| 2026-05-06 02:54 | 40.64345 | -1.58988 | 27726 ft | 316 kts | 253° |
| 2026-05-06 02:54 | 40.63603 | -1.61697 | 27324 ft | 314 kts | 253° |
| 2026-05-06 02:55 | 40.62862 | -1.64399 | 26915 ft | 312 kts | 253° |
| 2026-05-06 02:55 | 40.62128 | -1.67078 | 26526 ft | 311 kts | 253° |
| 2026-05-06 02:55 | 40.61394 | -1.69752 | 26127 ft | 310 kts | 253° |
| 2026-05-06 02:55 | 40.60663 | -1.72414 | 25738 ft | 308 kts | 253° |
| 2026-05-06 02:56 | 40.59945 | -1.75027 | 25360 ft | 307 kts | 253° |
| 2026-05-06 02:56 | 40.59208 | -1.77700 | 24988 ft | 306 kts | 253° |
| 2026-05-06 02:56 | 40.58493 | -1.80294 | 24625 ft | 305 kts | 253° |
| 2026-05-06 02:56 | 40.57770 | -1.82908 | 24259 ft | 304 kts | 253° |
| 2026-05-06 02:57 | 40.57048 | -1.85517 | 23903 ft | 303 kts | 253° |
| 2026-05-06 02:57 | 40.56330 | -1.88116 | 23541 ft | 302 kts | 253° |
| 2026-05-06 02:57 | 40.55609 | -1.90704 | 23144 ft | 301 kts | 253° |
| 2026-05-06 02:57 | 40.54882 | -1.93305 | 22774 ft | 304 kts | 253° |
| 2026-05-06 02:58 | 40.54154 | -1.95915 | 22424 ft | 304 kts | 253° |
| 2026-05-06 02:58 | 40.53422 | -1.98528 | 22067 ft | 305 kts | 253° |
| 2026-05-06 02:58 | 40.52690 | -2.01144 | 21695 ft | 305 kts | 253° |
| 2026-05-06 02:58 | 40.51961 | -2.03760 | 21328 ft | 305 kts | 253° |
| 2026-05-06 02:59 | 40.51188 | -2.06365 | 20957 ft | 307 kts | 248° |
| 2026-05-06 02:59 | 40.50101 | -2.08876 | 20595 ft | 326 kts | 242° |
| 2026-05-06 02:59 | 40.48903 | -2.11457 | 20199 ft | 333 kts | 242° |
| 2026-05-06 02:59 | 40.47685 | -2.14061 | 19803 ft | 335 kts | 242° |
| 2026-05-06 03:00 | 40.46462 | -2.16675 | 19404 ft | 336 kts | 241° |
| 2026-05-06 03:00 | 40.45238 | -2.19290 | 18996 ft | 336 kts | 241° |
| 2026-05-06 03:00 | 40.44008 | -2.21904 | 18613 ft | 336 kts | 240° |
| 2026-05-06 03:00 | 40.42781 | -2.24517 | 18213 ft | 337 kts | 240° |
| 2026-05-06 03:01 | 40.41554 | -2.27130 | 17780 ft | 336 kts | 240° |
| 2026-05-06 03:01 | 40.40330 | -2.29736 | 17378 ft | 335 kts | 241° |
| 2026-05-06 03:01 | 40.39110 | -2.32338 | 16991 ft | 334 kts | 241° |
| 2026-05-06 03:01 | 40.37894 | -2.34925 | 16599 ft | 332 kts | 240° |
| 2026-05-06 03:02 | 40.36684 | -2.37495 | 16211 ft | 330 kts | 240° |
| 2026-05-06 03:02 | 40.35481 | -2.40049 | 15820 ft | 329 kts | 240° |
| 2026-05-06 03:02 | 40.34281 | -2.42594 | 15435 ft | 327 kts | 240° |
| 2026-05-06 03:02 | 40.33088 | -2.45127 | 15037 ft | 325 kts | 240° |
| 2026-05-06 03:03 | 40.31902 | -2.47643 | 14662 ft | 324 kts | 240° |
| 2026-05-06 03:03 | 40.30730 | -2.50127 | 14462 ft | 315 kts | 240° |
| 2026-05-06 03:03 | 40.29590 | -2.52526 | 14318 ft | 305 kts | 240° |
| 2026-05-06 03:03 | 40.28483 | -2.54853 | 14204 ft | 296 kts | 240° |
| 2026-05-06 03:04 | 40.27413 | -2.57106 | 14082 ft | 288 kts | 240° |
| 2026-05-06 03:04 | 40.26470 | -2.59362 | 13962 ft | 277 kts | 251° |
| 2026-05-06 03:04 | 40.26053 | -2.61768 | 13843 ft | 268 kts | 266° |
| 2026-05-06 03:04 | 40.26035 | -2.64174 | 13718 ft | 260 kts | 270° |
| 2026-05-06 03:05 | 40.26034 | -2.66520 | 13503 ft | 256 kts | 270° |
| 2026-05-06 03:05 | 40.26026 | -2.68816 | 13185 ft | 256 kts | 270° |
| 2026-05-06 03:05 | 40.26016 | -2.71181 | 12862 ft | 256 kts | 270° |
| 2026-05-06 03:05 | 40.26007 | -2.73476 | 12547 ft | 256 kts | 270° |
| 2026-05-06 03:06 | 40.26000 | -2.75799 | 12254 ft | 255 kts | 270° |
| 2026-05-06 03:06 | 40.25994 | -2.78106 | 12044 ft | 251 kts | 270° |
| 2026-05-06 03:06 | 40.25986 | -2.80372 | 11948 ft | 248 kts | 270° |
| 2026-05-06 03:06 | 40.25979 | -2.82628 | 11872 ft | 247 kts | 270° |
| 2026-05-06 03:07 | 40.25972 | -2.84868 | 11582 ft | 246 kts | 270° |
| 2026-05-06 03:07 | 40.25965 | -2.87100 | 11293 ft | 245 kts | 270° |
| 2026-05-06 03:07 | 40.25956 | -2.89321 | 11013 ft | 244 kts | 270° |
| 2026-05-06 03:07 | 40.25947 | -2.91535 | 10737 ft | 243 kts | 270° |
| 2026-05-06 03:08 | 40.25936 | -2.93743 | 10441 ft | 242 kts | 270° |
| 2026-05-06 03:08 | 40.25923 | -2.95943 | 10190 ft | 241 kts | 270° |
| 2026-05-06 03:08 | 40.25912 | -2.98135 | 9874 ft | 241 kts | 270° |
| 2026-05-06 03:08 | 40.25900 | -3.00321 | 9555 ft | 239 kts | 270° |
| 2026-05-06 03:09 | 40.25886 | -3.02499 | 9206 ft | 239 kts | 270° |
| 2026-05-06 03:09 | 40.25872 | -3.04669 | 8889 ft | 238 kts | 270° |
| 2026-05-06 03:09 | 40.25858 | -3.06826 | 8578 ft | 236 kts | 270° |
| 2026-05-06 03:09 | 40.25843 | -3.08974 | 8242 ft | 235 kts | 271° |
| 2026-05-06 03:10 | 40.25828 | -3.11099 | 8052 ft | 232 kts | 271° |
| 2026-05-06 03:10 | 40.25846 | -3.13215 | 8029 ft | 233 kts | 277° |
| 2026-05-06 03:10 | 40.26212 | -3.15268 | 8031 ft | 232 kts | 288° |
| 2026-05-06 03:10 | 40.26711 | -3.17273 | 7974 ft | 231 kts | 288° |
| 2026-05-06 03:11 | 40.27202 | -3.19272 | 7581 ft | 232 kts | 288° |
| 2026-05-06 03:11 | 40.27693 | -3.21287 | 7240 ft | 232 kts | 288° |
| 2026-05-06 03:11 | 40.28178 | -3.23290 | 6913 ft | 230 kts | 289° |
| 2026-05-06 03:11 | 40.28657 | -3.25276 | 6586 ft | 228 kts | 289° |
| 2026-05-06 03:12 | 40.29135 | -3.27258 | 6218 ft | 229 kts | 289° |
| 2026-05-06 03:12 | 40.29614 | -3.29246 | 5854 ft | 229 kts | 289° |
| 2026-05-06 03:12 | 40.30090 | -3.31229 | 5542 ft | 227 kts | 289° |
| 2026-05-06 03:12 | 40.30562 | -3.33187 | 5247 ft | 224 kts | 289° |
| 2026-05-06 03:13 | 40.31026 | -3.35106 | 5105 ft | 218 kts | 289° |
| 2026-05-06 03:13 | 40.31525 | -3.36983 | 5028 ft | 218 kts | 299° |
| 2026-05-06 03:13 | 40.32405 | -3.38488 | 5031 ft | 205 kts | 320° |
| 2026-05-06 03:13 | 40.33487 | -3.39591 | 5049 ft | 188 kts | 322° |
| 2026-05-06 03:14 | 40.34475 | -3.40586 | 5001 ft | 172 kts | 322° |
| 2026-05-06 03:14 | 40.35400 | -3.41519 | 4854 ft | 164 kts | 322° |
| 2026-05-06 03:14 | 40.36285 | -3.42413 | 4663 ft | 158 kts | 322° |
| 2026-05-06 03:14 | 40.37138 | -3.43274 | 4463 ft | 152 kts | 322° |
| 2026-05-06 03:15 | 40.37966 | -3.44111 | 4258 ft | 148 kts | 323° |
| 2026-05-06 03:15 | 40.38776 | -3.44930 | 4061 ft | 146 kts | 323° |
| 2026-05-06 03:15 | 40.39571 | -3.45734 | 3870 ft | 144 kts | 323° |
| 2026-05-06 03:15 | 40.40356 | -3.46527 | 3698 ft | 140 kts | 323° |
| 2026-05-06 03:16 | 40.41125 | -3.47305 | 3505 ft | 139 kts | 323° |
| 2026-05-06 03:16 | 40.41888 | -3.48078 | 3313 ft | 138 kts | 323° |
| 2026-05-06 03:16 | 40.42651 | -3.48851 | 3093 ft | 142 kts | 320° |
| 2026-05-06 03:16 | 40.43428 | -3.49637 | 2896 ft | 142 kts | 321° |
| 2026-05-06 03:17 | 40.44208 | -3.50426 | 2724 ft | 141 kts | 321° |
| 2026-05-06 03:17 | 40.44975 | -3.51204 | 2529 ft | 139 kts | 321° |
| 2026-05-06 03:17 | 40.45738 | -3.51977 | 2344 ft | 138 kts | 320° |
| 2026-05-06 03:17 | 40.46492 | -3.52744 | 2159 ft | 137 kts | 322° |
| 2026-05-06 03:18 | 40.47237 | -3.53498 | 1994 ft | 135 kts | 321° |
| 2026-05-06 03:18 | 40.47960 | -3.54233 | 1933 ft | 120 kts | 322° |
| 2026-05-06 03:18 | 40.48533 | -3.54822 | 1942 ft | 90 kts | 322° |
| 2026-05-06 03:18 | 40.48931 | -3.55225 | 1952 ft | 61 kts | 323° |
| 2026-05-06 03:19 | 40.49174 | -3.55509 | 1956 ft | 28 kts | 303° |
| 2026-05-06 03:19 | 40.49204 | -3.55585 | 1959 ft | 0 kts | 293° |
| 2026-05-06 03:19 | 40.49214 | -3.55615 | 1963 ft | 11 kts | 294° |
| 2026-05-06 03:19 | 40.49247 | -3.55710 | 1964 ft | 13 kts | 294° |
| 2026-05-06 03:20 | 40.49297 | -3.56071 | 1958 ft | 24 kts | 269° |
| 2026-05-06 03:20 | 40.49327 | -3.56228 | 1961 ft | 15 kts | 330° |
| 2026-05-06 03:20 | 40.49430 | -3.56244 | 1961 ft | 16 kts | 359° |
| 2026-05-06 03:21 | 40.49537 | -3.56272 | 1965 ft | 16 kts | 313° |
| 2026-05-06 03:21 | 40.49553 | -3.56402 | 1966 ft | 14 kts | 271° |
| 2026-05-06 03:21 | 40.49565 | -3.56518 | 1974 ft | 12 kts | 311° |
| 2026-05-06 03:21 | 40.49617 | -3.56589 | 1974 ft | 10 kts | 280° |
| 2026-05-06 03:22 | 40.49619 | -3.56651 | 1971 ft | 0 kts | 270° |
| 2026-05-06 03:24 | 40.45298 | -3.51531 | 2462 ft | 138 kts | 320° |
| 2026-05-06 03:24 | 40.46056 | -3.52302 | 2297 ft | 132 kts | 321° |
| 2026-05-06 03:24 | 40.46786 | -3.53042 | 2094 ft | 138 kts | 321° |
| 2026-05-06 03:24 | 40.47063 | -3.53328 | 1897 ft | 0 kts | 320° |